sensor_id;sensor_type;location;lat;lon;timestamp;P1;durP1;ratioP1;P2;durP2;ratioP2
54193;SDS011;40102;50.906;6.972;2023-01-24T00:02:23;8.90;;;5.28;;
54193;SDS011;40102;50.906;6.972;2023-01-24T00:04:49;11.85;;;5.30;;
54193;SDS011;40102;50.906;6.972;2023-01-24T00:07:14;9.10;;;4.80;;
54193;SDS011;40102;50.906;6.972;2023-01-24T00:09:39;8.82;;;4.82;;
54193;SDS011;40102;50.906;6.972;2023-01-24T00:12:08;8.57;;;5.10;;
54193;SDS011;40102;50.906;6.972;2023-01-24T00:14:33;8.43;;;5.22;;
54193;SDS011;40102;50.906;6.972;2023-01-24T00:16:58;8.18;;;4.75;;
54193;SDS011;40102;50.906;6.972;2023-01-24T00:19:24;9.35;;;5.20;;
54193;SDS011;40102;50.906;6.972;2023-01-24T00:21:50;7.93;;;4.90;;
54193;SDS011;40102;50.906;6.972;2023-01-24T00:24:15;8.70;;;4.47;;
54193;SDS011;40102;50.906;6.972;2023-01-24T00:26:40;8.65;;;5.15;;
54193;SDS011;40102;50.906;6.972;2023-01-24T00:29:05;7.93;;;4.65;;
54193;SDS011;40102;50.906;6.972;2023-01-24T00:31:31;7.50;;;4.50;;
54193;SDS011;40102;50.906;6.972;2023-01-24T00:33:56;7.20;;;4.20;;
54193;SDS011;40102;50.906;6.972;2023-01-24T00:36:21;7.00;;;4.20;;
54193;SDS011;40102;50.906;6.972;2023-01-24T00:38:47;9.25;;;5.30;;
54193;SDS011;40102;50.906;6.972;2023-01-24T00:41:13;8.13;;;4.60;;
54193;SDS011;40102;50.906;6.972;2023-01-24T00:43:38;8.50;;;4.38;;
54193;SDS011;40102;50.906;6.972;2023-01-24T00:46:07;7.72;;;4.53;;
54193;SDS011;40102;50.906;6.972;2023-01-24T00:48:34;7.90;;;4.80;;
54193;SDS011;40102;50.906;6.972;2023-01-24T00:51:00;8.35;;;5.40;;
54193;SDS011;40102;50.906;6.972;2023-01-24T00:53:25;7.28;;;4.28;;
54193;SDS011;40102;50.906;6.972;2023-01-24T00:55:51;8.10;;;4.80;;
54193;SDS011;40102;50.906;6.972;2023-01-24T00:58:17;8.68;;;5.10;;
54193;SDS011;40102;50.906;6.972;2023-01-24T01:00:43;7.90;;;4.90;;
54193;SDS011;40102;50.906;6.972;2023-01-24T01:03:18;9.27;;;4.72;;
54193;SDS011;40102;50.906;6.972;2023-01-24T01:05:44;8.55;;;4.68;;
54193;SDS011;40102;50.906;6.972;2023-01-24T01:08:10;9.20;;;5.00;;
54193;SDS011;40102;50.906;6.972;2023-01-24T01:10:36;7.53;;;4.55;;
54193;SDS011;40102;50.906;6.972;2023-01-24T01:13:02;7.68;;;4.88;;
54193;SDS011;40102;50.906;6.972;2023-01-24T01:15:29;6.60;;;3.97;;
54193;SDS011;40102;50.906;6.972;2023-01-24T01:17:56;9.18;;;5.30;;
54193;SDS011;40102;50.906;6.972;2023-01-24T01:20:22;8.73;;;5.13;;
54193;SDS011;40102;50.906;6.972;2023-01-24T01:22:48;7.18;;;4.43;;
54193;SDS011;40102;50.906;6.972;2023-01-24T01:25:14;7.22;;;4.57;;
54193;SDS011;40102;50.906;6.972;2023-01-24T01:27:39;8.15;;;5.10;;
54193;SDS011;40102;50.906;6.972;2023-01-24T01:30:05;6.95;;;4.30;;
54193;SDS011;40102;50.906;6.972;2023-01-24T01:32:32;9.02;;;4.72;;
54193;SDS011;40102;50.906;6.972;2023-01-24T01:34:57;7.85;;;4.50;;
54193;SDS011;40102;50.906;6.972;2023-01-24T01:37:23;7.50;;;4.40;;
54193;SDS011;40102;50.906;6.972;2023-01-24T01:39:49;6.70;;;3.92;;
54193;SDS011;40102;50.906;6.972;2023-01-24T01:42:14;7.57;;;4.18;;
54193;SDS011;40102;50.906;6.972;2023-01-24T01:44:40;7.63;;;4.28;;
54193;SDS011;40102;50.906;6.972;2023-01-24T01:49:46;8.35;;;5.13;;
54193;SDS011;40102;50.906;6.972;2023-01-24T01:52:36;8.13;;;5.10;;
54193;SDS011;40102;50.906;6.972;2023-01-24T01:55:11;9.20;;;5.30;;
54193;SDS011;40102;50.906;6.972;2023-01-24T01:57:39;9.35;;;4.65;;
54193;SDS011;40102;50.906;6.972;2023-01-24T02:00:38;8.52;;;4.63;;
54193;SDS011;40102;50.906;6.972;2023-01-24T02:02:59;8.07;;;4.45;;
54193;SDS011;40102;50.906;6.972;2023-01-24T02:05:46;7.50;;;4.40;;
54193;SDS011;40102;50.906;6.972;2023-01-24T02:08:14;6.65;;;4.53;;
54193;SDS011;40102;50.906;6.972;2023-01-24T02:10:44;6.95;;;4.30;;
54193;SDS011;40102;50.906;6.972;2023-01-24T02:13:28;8.23;;;4.50;;
54193;SDS011;40102;50.906;6.972;2023-01-24T02:15:54;7.57;;;4.43;;
54193;SDS011;40102;50.906;6.972;2023-01-24T02:18:35;7.43;;;4.10;;
54193;SDS011;40102;50.906;6.972;2023-01-24T02:21:03;7.45;;;4.55;;
54193;SDS011;40102;50.906;6.972;2023-01-24T02:23:39;6.37;;;3.90;;
54193;SDS011;40102;50.906;6.972;2023-01-24T02:26:12;6.03;;;3.63;;
54193;SDS011;40102;50.906;6.972;2023-01-24T02:28:43;7.07;;;3.90;;
54193;SDS011;40102;50.906;6.972;2023-01-24T02:31:13;7.47;;;3.90;;
54193;SDS011;40102;50.906;6.972;2023-01-24T02:33:38;7.95;;;4.47;;
54193;SDS011;40102;50.906;6.972;2023-01-24T02:43:54;7.97;;;3.65;;
54193;SDS011;40102;50.906;6.972;2023-01-24T02:46:23;7.25;;;4.13;;
54193;SDS011;40102;50.906;6.972;2023-01-24T02:48:52;7.57;;;4.15;;
54193;SDS011;40102;50.906;6.972;2023-01-24T02:51:17;7.03;;;3.97;;
54193;SDS011;40102;50.906;6.972;2023-01-24T02:54:01;8.23;;;4.88;;
54193;SDS011;40102;50.906;6.972;2023-01-24T02:56:27;6.82;;;4.60;;
54193;SDS011;40102;50.906;6.972;2023-01-24T02:59:10;6.93;;;4.40;;
54193;SDS011;40102;50.906;6.972;2023-01-24T03:01:36;5.90;;;4.00;;
54193;SDS011;40102;50.906;6.972;2023-01-24T03:04:01;6.28;;;3.72;;
54193;SDS011;40102;50.906;6.972;2023-01-24T03:06:26;5.78;;;3.60;;
54193;SDS011;40102;50.906;6.972;2023-01-24T03:08:52;7.00;;;4.03;;
54193;SDS011;40102;50.906;6.972;2023-01-24T03:11:17;7.32;;;4.00;;
54193;SDS011;40102;50.906;6.972;2023-01-24T03:13:43;6.70;;;4.38;;
54193;SDS011;40102;50.906;6.972;2023-01-24T03:16:27;7.88;;;4.65;;
54193;SDS011;40102;50.906;6.972;2023-01-24T03:19:11;7.68;;;4.22;;
54193;SDS011;40102;50.906;6.972;2023-01-24T03:21:55;7.18;;;3.83;;
54193;SDS011;40102;50.906;6.972;2023-01-24T03:24:39;7.15;;;4.03;;
54193;SDS011;40102;50.906;6.972;2023-01-24T03:27:23;6.32;;;3.58;;
54193;SDS011;40102;50.906;6.972;2023-01-24T03:30:07;5.95;;;3.35;;
54193;SDS011;40102;50.906;6.972;2023-01-24T03:32:57;6.57;;;3.78;;
54193;SDS011;40102;50.906;6.972;2023-01-24T03:35:42;7.30;;;4.25;;
54193;SDS011;40102;50.906;6.972;2023-01-24T03:38:11;8.05;;;4.40;;
54193;SDS011;40102;50.906;6.972;2023-01-24T03:40:55;7.60;;;4.05;;
54193;SDS011;40102;50.906;6.972;2023-01-24T03:43:20;7.40;;;4.05;;
54193;SDS011;40102;50.906;6.972;2023-01-24T03:45:45;8.05;;;4.32;;
54193;SDS011;40102;50.906;6.972;2023-01-24T03:48:16;7.50;;;4.03;;
54193;SDS011;40102;50.906;6.972;2023-01-24T03:50:52;7.80;;;3.92;;
54193;SDS011;40102;50.906;6.972;2023-01-24T03:53:36;7.63;;;4.18;;
54193;SDS011;40102;50.906;6.972;2023-01-24T03:56:02;6.47;;;3.72;;
54193;SDS011;40102;50.906;6.972;2023-01-24T03:58:29;5.75;;;3.40;;
54193;SDS011;40102;50.906;6.972;2023-01-24T04:00:55;8.25;;;3.90;;
54193;SDS011;40102;50.906;6.972;2023-01-24T04:03:20;5.68;;;3.15;;
54193;SDS011;40102;50.906;6.972;2023-01-24T04:05:46;6.00;;;3.38;;
54193;SDS011;40102;50.906;6.972;2023-01-24T04:08:13;6.10;;;3.70;;
54193;SDS011;40102;50.906;6.972;2023-01-24T04:10:38;6.97;;;3.95;;
54193;SDS011;40102;50.906;6.972;2023-01-24T04:13:04;4.85;;;2.85;;
54193;SDS011;40102;50.906;6.972;2023-01-24T04:15:30;6.72;;;3.10;;
54193;SDS011;40102;50.906;6.972;2023-01-24T04:17:58;5.82;;;3.20;;
54193;SDS011;40102;50.906;6.972;2023-01-24T04:20:25;5.72;;;3.33;;
54193;SDS011;40102;50.906;6.972;2023-01-24T04:22:52;5.97;;;3.58;;
54193;SDS011;40102;50.906;6.972;2023-01-24T04:25:20;6.63;;;4.38;;
54193;SDS011;40102;50.906;6.972;2023-01-24T04:27:46;8.57;;;4.45;;
54193;SDS011;40102;50.906;6.972;2023-01-24T04:30:12;6.97;;;3.65;;
54193;SDS011;40102;50.906;6.972;2023-01-24T04:32:39;6.43;;;4.10;;
54193;SDS011;40102;50.906;6.972;2023-01-24T04:35:05;8.27;;;4.25;;
54193;SDS011;40102;50.906;6.972;2023-01-24T04:37:34;8.65;;;4.40;;
54193;SDS011;40102;50.906;6.972;2023-01-24T04:39:59;8.48;;;4.57;;
54193;SDS011;40102;50.906;6.972;2023-01-24T04:42:27;7.28;;;3.72;;
54193;SDS011;40102;50.906;6.972;2023-01-24T04:44:53;7.78;;;4.05;;
54193;SDS011;40102;50.906;6.972;2023-01-24T04:47:18;6.07;;;4.05;;
54193;SDS011;40102;50.906;6.972;2023-01-24T04:49:44;6.45;;;3.90;;
54193;SDS011;40102;50.906;6.972;2023-01-24T04:52:12;5.90;;;3.85;;
54193;SDS011;40102;50.906;6.972;2023-01-24T04:54:41;7.95;;;3.95;;
54193;SDS011;40102;50.906;6.972;2023-01-24T04:57:07;7.30;;;4.43;;
54193;SDS011;40102;50.906;6.972;2023-01-24T04:59:35;6.75;;;4.05;;
54193;SDS011;40102;50.906;6.972;2023-01-24T05:02:01;7.18;;;4.13;;
54193;SDS011;40102;50.906;6.972;2023-01-24T05:04:26;5.88;;;3.33;;
54193;SDS011;40102;50.906;6.972;2023-01-24T05:06:52;4.95;;;2.83;;
54193;SDS011;40102;50.906;6.972;2023-01-24T05:09:17;6.63;;;3.80;;
54193;SDS011;40102;50.906;6.972;2023-01-24T05:11:42;7.45;;;4.75;;
54193;SDS011;40102;50.906;6.972;2023-01-24T05:14:08;6.70;;;3.90;;
54193;SDS011;40102;50.906;6.972;2023-01-24T05:16:34;5.97;;;3.67;;
54193;SDS011;40102;50.906;6.972;2023-01-24T05:19:00;6.90;;;4.00;;
54193;SDS011;40102;50.906;6.972;2023-01-24T05:21:25;7.38;;;4.20;;
54193;SDS011;40102;50.906;6.972;2023-01-24T05:23:51;7.13;;;4.38;;
54193;SDS011;40102;50.906;6.972;2023-01-24T05:26:18;6.40;;;3.70;;
54193;SDS011;40102;50.906;6.972;2023-01-24T05:28:44;5.47;;;3.47;;
54193;SDS011;40102;50.906;6.972;2023-01-24T05:31:10;5.50;;;3.05;;
54193;SDS011;40102;50.906;6.972;2023-01-24T05:33:36;5.88;;;3.75;;
54193;SDS011;40102;50.906;6.972;2023-01-24T05:36:05;9.75;;;4.90;;
54193;SDS011;40102;50.906;6.972;2023-01-24T05:38:33;6.53;;;3.90;;
54193;SDS011;40102;50.906;6.972;2023-01-24T05:40:59;6.78;;;3.78;;
54193;SDS011;40102;50.906;6.972;2023-01-24T05:43:26;6.38;;;3.80;;
54193;SDS011;40102;50.906;6.972;2023-01-24T05:45:51;6.78;;;3.53;;
54193;SDS011;40102;50.906;6.972;2023-01-24T05:48:25;6.63;;;3.92;;
54193;SDS011;40102;50.906;6.972;2023-01-24T05:50:55;8.70;;;3.92;;
54193;SDS011;40102;50.906;6.972;2023-01-24T05:53:22;6.47;;;4.03;;
54193;SDS011;40102;50.906;6.972;2023-01-24T05:55:53;6.03;;;4.10;;
54193;SDS011;40102;50.906;6.972;2023-01-24T05:58:19;7.88;;;4.30;;
54193;SDS011;40102;50.906;6.972;2023-01-24T06:00:45;6.25;;;3.50;;
54193;SDS011;40102;50.906;6.972;2023-01-24T06:03:10;7.43;;;4.05;;
54193;SDS011;40102;50.906;6.972;2023-01-24T06:05:36;6.75;;;3.95;;
54193;SDS011;40102;50.906;6.972;2023-01-24T06:08:01;7.97;;;4.32;;
54193;SDS011;40102;50.906;6.972;2023-01-24T06:10:26;6.43;;;4.30;;
54193;SDS011;40102;50.906;6.972;2023-01-24T06:12:52;7.38;;;4.07;;
54193;SDS011;40102;50.906;6.972;2023-01-24T06:15:17;6.97;;;4.55;;
54193;SDS011;40102;50.906;6.972;2023-01-24T06:17:42;6.75;;;4.15;;
54193;SDS011;40102;50.906;6.972;2023-01-24T06:20:10;6.88;;;4.40;;
54193;SDS011;40102;50.906;6.972;2023-01-24T06:22:43;7.10;;;4.03;;
54193;SDS011;40102;50.906;6.972;2023-01-24T06:25:17;8.80;;;4.50;;
54193;SDS011;40102;50.906;6.972;2023-01-24T06:27:47;7.18;;;4.18;;
54193;SDS011;40102;50.906;6.972;2023-01-24T06:30:13;7.13;;;3.88;;
54193;SDS011;40102;50.906;6.972;2023-01-24T06:38:22;15.48;;;4.30;;
54193;SDS011;40102;50.906;6.972;2023-01-24T06:40:51;6.80;;;3.70;;
54193;SDS011;40102;50.906;6.972;2023-01-24T06:43:21;8.82;;;3.38;;
54193;SDS011;40102;50.906;6.972;2023-01-24T06:45:47;4.78;;;2.88;;
54193;SDS011;40102;50.906;6.972;2023-01-24T06:48:13;4.75;;;3.10;;
54193;SDS011;40102;50.906;6.972;2023-01-24T06:50:38;3.90;;;2.75;;
54193;SDS011;40102;50.906;6.972;2023-01-24T06:53:04;3.50;;;2.63;;
54193;SDS011;40102;50.906;6.972;2023-01-24T06:55:30;3.47;;;2.50;;
54193;SDS011;40102;50.906;6.972;2023-01-24T06:57:56;5.07;;;2.88;;
54193;SDS011;40102;50.906;6.972;2023-01-24T07:00:23;4.47;;;3.20;;
54193;SDS011;40102;50.906;6.972;2023-01-24T07:02:56;4.78;;;3.08;;
54193;SDS011;40102;50.906;6.972;2023-01-24T07:05:26;4.18;;;2.78;;
54193;SDS011;40102;50.906;6.972;2023-01-24T07:07:52;4.50;;;2.80;;
54193;SDS011;40102;50.906;6.972;2023-01-24T07:10:17;3.80;;;2.60;;
54193;SDS011;40102;50.906;6.972;2023-01-24T07:12:43;7.43;;;3.92;;
54193;SDS011;40102;50.906;6.972;2023-01-24T07:15:11;4.82;;;3.47;;
54193;SDS011;40102;50.906;6.972;2023-01-24T07:17:36;6.32;;;4.00;;
54193;SDS011;40102;50.906;6.972;2023-01-24T07:20:02;6.78;;;4.47;;
54193;SDS011;40102;50.906;6.972;2023-01-24T07:22:28;8.32;;;4.70;;
54193;SDS011;40102;50.906;6.972;2023-01-24T07:24:53;8.00;;;4.10;;
54193;SDS011;40102;50.906;6.972;2023-01-24T07:27:19;6.22;;;3.72;;
54193;SDS011;40102;50.906;6.972;2023-01-24T07:29:45;5.85;;;3.78;;
54193;SDS011;40102;50.906;6.972;2023-01-24T07:32:10;6.35;;;3.58;;
54193;SDS011;40102;50.906;6.972;2023-01-24T07:34:36;5.95;;;3.50;;
54193;SDS011;40102;50.906;6.972;2023-01-24T07:37:01;6.13;;;4.20;;
54193;SDS011;40102;50.906;6.972;2023-01-24T07:39:27;6.80;;;4.10;;
54193;SDS011;40102;50.906;6.972;2023-01-24T07:41:54;6.75;;;4.10;;
54193;SDS011;40102;50.906;6.972;2023-01-24T07:44:19;7.03;;;4.28;;
54193;SDS011;40102;50.906;6.972;2023-01-24T07:46:44;6.95;;;4.03;;
54193;SDS011;40102;50.906;6.972;2023-01-24T07:49:10;7.07;;;4.30;;
54193;SDS011;40102;50.906;6.972;2023-01-24T07:51:35;5.97;;;3.92;;
54193;SDS011;40102;50.906;6.972;2023-01-24T07:54:01;5.55;;;3.50;;
54193;SDS011;40102;50.906;6.972;2023-01-24T07:56:27;5.43;;;3.38;;
54193;SDS011;40102;50.906;6.972;2023-01-24T07:58:53;7.30;;;4.03;;
54193;SDS011;40102;50.906;6.972;2023-01-24T08:01:22;9.88;;;4.88;;
54193;SDS011;40102;50.906;6.972;2023-01-24T08:03:48;7.90;;;4.45;;
54193;SDS011;40102;50.906;6.972;2023-01-24T08:06:14;6.97;;;4.30;;
54193;SDS011;40102;50.906;6.972;2023-01-24T08:08:40;9.40;;;5.00;;
54193;SDS011;40102;50.906;6.972;2023-01-24T08:11:05;7.25;;;4.45;;
54193;SDS011;40102;50.906;6.972;2023-01-24T08:13:30;6.50;;;3.80;;
54193;SDS011;40102;50.906;6.972;2023-01-24T08:15:56;5.53;;;3.47;;
54193;SDS011;40102;50.906;6.972;2023-01-24T08:18:21;5.72;;;3.38;;
54193;SDS011;40102;50.906;6.972;2023-01-24T08:20:46;4.55;;;3.20;;
54193;SDS011;40102;50.906;6.972;2023-01-24T08:23:13;6.93;;;4.20;;
54193;SDS011;40102;50.906;6.972;2023-01-24T08:25:39;11.43;;;4.30;;
54193;SDS011;40102;50.906;6.972;2023-01-24T08:28:04;6.63;;;3.97;;
54193;SDS011;40102;50.906;6.972;2023-01-24T08:30:29;6.85;;;4.20;;
54193;SDS011;40102;50.906;6.972;2023-01-24T08:33:01;6.68;;;4.22;;
54193;SDS011;40102;50.906;6.972;2023-01-24T08:35:28;7.38;;;4.35;;
54193;SDS011;40102;50.906;6.972;2023-01-24T08:37:54;6.93;;;4.50;;
54193;SDS011;40102;50.906;6.972;2023-01-24T08:40:20;7.03;;;3.95;;
54193;SDS011;40102;50.906;6.972;2023-01-24T08:42:45;6.85;;;3.85;;
54193;SDS011;40102;50.906;6.972;2023-01-24T08:45:10;6.32;;;3.63;;
54193;SDS011;40102;50.906;6.972;2023-01-24T08:47:36;6.10;;;3.65;;
54193;SDS011;40102;50.906;6.972;2023-01-24T08:50:01;5.68;;;3.85;;
54193;SDS011;40102;50.906;6.972;2023-01-24T08:52:27;6.35;;;3.80;;
54193;SDS011;40102;50.906;6.972;2023-01-24T08:54:53;5.75;;;3.55;;
54193;SDS011;40102;50.906;6.972;2023-01-24T08:57:18;5.93;;;3.70;;
54193;SDS011;40102;50.906;6.972;2023-01-24T08:59:43;6.03;;;3.50;;
54193;SDS011;40102;50.906;6.972;2023-01-24T09:02:12;4.90;;;3.08;;
54193;SDS011;40102;50.906;6.972;2023-01-24T09:04:39;3.90;;;2.75;;
54193;SDS011;40102;50.906;6.972;2023-01-24T09:07:04;5.65;;;3.42;;
54193;SDS011;40102;50.906;6.972;2023-01-24T09:09:29;5.82;;;3.70;;
54193;SDS011;40102;50.906;6.972;2023-01-24T09:11:55;6.40;;;4.00;;
54193;SDS011;40102;50.906;6.972;2023-01-24T09:14:20;5.28;;;3.42;;
54193;SDS011;40102;50.906;6.972;2023-01-24T09:16:46;6.13;;;3.75;;
54193;SDS011;40102;50.906;6.972;2023-01-24T09:19:11;5.60;;;3.65;;
54193;SDS011;40102;50.906;6.972;2023-01-24T09:21:37;4.65;;;3.20;;
54193;SDS011;40102;50.906;6.972;2023-01-24T09:24:03;7.05;;;3.97;;
54193;SDS011;40102;50.906;6.972;2023-01-24T09:26:28;6.30;;;3.63;;
54193;SDS011;40102;50.906;6.972;2023-01-24T09:28:54;6.40;;;3.92;;
54193;SDS011;40102;50.906;6.972;2023-01-24T09:31:20;6.55;;;4.00;;
54193;SDS011;40102;50.906;6.972;2023-01-24T09:33:49;7.03;;;3.22;;
54193;SDS011;40102;50.906;6.972;2023-01-24T09:36:14;6.10;;;3.53;;
54193;SDS011;40102;50.906;6.972;2023-01-24T09:38:39;4.90;;;3.38;;
54193;SDS011;40102;50.906;6.972;2023-01-24T09:41:09;6.57;;;4.15;;
54193;SDS011;40102;50.906;6.972;2023-01-24T09:44:00;5.75;;;3.40;;
54193;SDS011;40102;50.906;6.972;2023-01-24T09:46:40;6.73;;;4.20;;
54193;SDS011;40102;50.906;6.972;2023-01-24T09:51:56;6.00;;;3.55;;
54193;SDS011;40102;50.906;6.972;2023-01-24T09:54:36;4.60;;;3.05;;
54193;SDS011;40102;50.906;6.972;2023-01-24T09:57:11;6.18;;;3.92;;
54193;SDS011;40102;50.906;6.972;2023-01-24T09:59:45;5.57;;;4.05;;
54193;SDS011;40102;50.906;6.972;2023-01-24T10:02:17;5.25;;;3.30;;
54193;SDS011;40102;50.906;6.972;2023-01-24T10:04:44;6.38;;;3.85;;
54193;SDS011;40102;50.906;6.972;2023-01-24T10:13:24;5.68;;;3.75;;
54193;SDS011;40102;50.906;6.972;2023-01-24T10:24:35;8.15;;;4.20;;
54193;SDS011;40102;50.906;6.972;2023-01-24T10:27:11;6.43;;;4.07;;
54193;SDS011;40102;50.906;6.972;2023-01-24T10:29:54;5.43;;;3.60;;
54193;SDS011;40102;50.906;6.972;2023-01-24T10:32:29;5.90;;;3.45;;
54193;SDS011;40102;50.906;6.972;2023-01-24T10:34:58;5.28;;;3.20;;
54193;SDS011;40102;50.906;6.972;2023-01-24T10:37:37;5.22;;;3.70;;
54193;SDS011;40102;50.906;6.972;2023-01-24T10:40:15;6.32;;;4.13;;
54193;SDS011;40102;50.906;6.972;2023-01-24T10:42:41;6.20;;;3.63;;
54193;SDS011;40102;50.906;6.972;2023-01-24T10:50:42;6.93;;;4.38;;
54193;SDS011;40102;50.906;6.972;2023-01-24T10:53:26;7.10;;;4.18;;
54193;SDS011;40102;50.906;6.972;2023-01-24T10:55:59;6.70;;;4.07;;
54193;SDS011;40102;50.906;6.972;2023-01-24T11:01:23;6.40;;;4.07;;
54193;SDS011;40102;50.906;6.972;2023-01-24T11:03:57;6.07;;;3.90;;
54193;SDS011;40102;50.906;6.972;2023-01-24T11:06:38;6.18;;;3.63;;
54193;SDS011;40102;50.906;6.972;2023-01-24T11:09:11;5.65;;;3.55;;
54193;SDS011;40102;50.906;6.972;2023-01-24T11:11:41;6.45;;;3.10;;
54193;SDS011;40102;50.906;6.972;2023-01-24T11:14:16;5.00;;;3.47;;
54193;SDS011;40102;50.906;6.972;2023-01-24T11:16:46;6.60;;;4.00;;
54193;SDS011;40102;50.906;6.972;2023-01-24T11:21:55;6.47;;;3.83;;
54193;SDS011;40102;50.906;6.972;2023-01-24T11:24:23;8.00;;;4.53;;
54193;SDS011;40102;50.906;6.972;2023-01-24T11:29:38;7.15;;;4.43;;
54193;SDS011;40102;50.906;6.972;2023-01-24T11:34:57;7.60;;;5.00;;
54193;SDS011;40102;50.906;6.972;2023-01-24T11:43:06;8.10;;;5.07;;
54193;SDS011;40102;50.906;6.972;2023-01-24T11:48:31;8.55;;;4.93;;
54193;SDS011;40102;50.906;6.972;2023-01-24T11:51:12;7.75;;;4.80;;
54193;SDS011;40102;50.906;6.972;2023-01-24T11:59:29;7.60;;;5.07;;
54193;SDS011;40102;50.906;6.972;2023-01-24T12:02:03;5.82;;;3.80;;
54193;SDS011;40102;50.906;6.972;2023-01-24T12:13:32;6.45;;;3.92;;
54193;SDS011;40102;50.906;6.972;2023-01-24T12:22:19;7.90;;;4.22;;
54193;SDS011;40102;50.906;6.972;2023-01-24T12:25:22;8.40;;;4.80;;
54193;SDS011;40102;50.906;6.972;2023-01-24T12:27:48;7.47;;;4.53;;
54193;SDS011;40102;50.906;6.972;2023-01-24T12:30:33;6.35;;;3.80;;
54193;SDS011;40102;50.906;6.972;2023-01-24T12:33:10;9.48;;;5.50;;
54193;SDS011;40102;50.906;6.972;2023-01-24T12:35:40;8.20;;;4.57;;
54193;SDS011;40102;50.906;6.972;2023-01-24T12:49:31;7.40;;;4.93;;
54193;SDS011;40102;50.906;6.972;2023-01-24T12:52:08;8.95;;;5.40;;
54193;SDS011;40102;50.906;6.972;2023-01-24T12:54:50;7.45;;;4.75;;
54193;SDS011;40102;50.906;6.972;2023-01-24T13:00:21;8.60;;;5.47;;
54193;SDS011;40102;50.906;6.972;2023-01-24T13:06:11;8.35;;;5.35;;
54193;SDS011;40102;50.906;6.972;2023-01-24T13:11:54;8.02;;;5.28;;
54193;SDS011;40102;50.906;6.972;2023-01-24T13:14:24;9.52;;;5.55;;
54193;SDS011;40102;50.906;6.972;2023-01-24T13:28:07;6.65;;;4.03;;
54193;SDS011;40102;50.906;6.972;2023-01-24T13:33:41;7.82;;;4.82;;
54193;SDS011;40102;50.906;6.972;2023-01-24T13:36:18;8.30;;;4.72;;
54193;SDS011;40102;50.906;6.972;2023-01-24T13:38:46;8.90;;;5.20;;
54193;SDS011;40102;50.906;6.972;2023-01-24T13:41:13;7.15;;;5.00;;
54193;SDS011;40102;50.906;6.972;2023-01-24T13:49:16;8.15;;;4.93;;
54193;SDS011;40102;50.906;6.972;2023-01-24T13:51:49;7.78;;;4.60;;
54193;SDS011;40102;50.906;6.972;2023-01-24T13:57:21;5.70;;;3.63;;
54193;SDS011;40102;50.906;6.972;2023-01-24T14:02:42;8.05;;;4.32;;
54193;SDS011;40102;50.906;6.972;2023-01-24T14:07:56;10.25;;;5.32;;
54193;SDS011;40102;50.906;6.972;2023-01-24T14:12:59;9.27;;;5.60;;
54193;SDS011;40102;50.906;6.972;2023-01-24T14:15:29;10.38;;;5.78;;
54193;SDS011;40102;50.906;6.972;2023-01-24T14:18:37;8.63;;;5.57;;
54193;SDS011;40102;50.906;6.972;2023-01-24T14:21:18;10.38;;;5.43;;
54193;SDS011;40102;50.906;6.972;2023-01-24T14:23:49;9.60;;;5.72;;
54193;SDS011;40102;50.906;6.972;2023-01-24T14:26:20;7.93;;;5.15;;
54193;SDS011;40102;50.906;6.972;2023-01-24T14:28:52;9.15;;;5.45;;
54193;SDS011;40102;50.906;6.972;2023-01-24T14:31:22;11.25;;;6.20;;
54193;SDS011;40102;50.906;6.972;2023-01-24T14:36:20;11.57;;;5.20;;
54193;SDS011;40102;50.906;6.972;2023-01-24T14:38:46;9.43;;;5.60;;
54193;SDS011;40102;50.906;6.972;2023-01-24T14:41:21;9.30;;;5.55;;
54193;SDS011;40102;50.906;6.972;2023-01-24T14:43:47;8.20;;;5.35;;
54193;SDS011;40102;50.906;6.972;2023-01-24T14:46:20;8.80;;;5.30;;
54193;SDS011;40102;50.906;6.972;2023-01-24T14:48:48;9.80;;;6.03;;
54193;SDS011;40102;50.906;6.972;2023-01-24T14:51:15;8.02;;;5.15;;
54193;SDS011;40102;50.906;6.972;2023-01-24T14:53:47;10.43;;;5.45;;
54193;SDS011;40102;50.906;6.972;2023-01-24T14:56:17;9.13;;;5.70;;
54193;SDS011;40102;50.906;6.972;2023-01-24T14:58:44;11.95;;;5.70;;
54193;SDS011;40102;50.906;6.972;2023-01-24T15:01:27;9.73;;;5.78;;
54193;SDS011;40102;50.906;6.972;2023-01-24T15:03:55;9.38;;;5.32;;
54193;SDS011;40102;50.906;6.972;2023-01-24T15:06:22;8.02;;;5.32;;
54193;SDS011;40102;50.906;6.972;2023-01-24T15:08:52;8.48;;;5.78;;
54193;SDS011;40102;50.906;6.972;2023-01-24T15:11:30;9.93;;;5.70;;
54193;SDS011;40102;50.906;6.972;2023-01-24T15:13:59;8.63;;;5.38;;
54193;SDS011;40102;50.906;6.972;2023-01-24T15:16:33;8.52;;;5.20;;
54193;SDS011;40102;50.906;6.972;2023-01-24T15:19:02;9.68;;;5.70;;
54193;SDS011;40102;50.906;6.972;2023-01-24T15:22:03;8.32;;;5.13;;
54193;SDS011;40102;50.906;6.972;2023-01-24T15:24:27;8.32;;;5.53;;
54193;SDS011;40102;50.906;6.972;2023-01-24T15:26:55;10.63;;;5.75;;
54193;SDS011;40102;50.906;6.972;2023-01-24T15:32:00;7.00;;;4.30;;
54193;SDS011;40102;50.906;6.972;2023-01-24T15:34:26;7.07;;;4.50;;
54193;SDS011;40102;50.906;6.972;2023-01-24T15:36:58;7.13;;;4.47;;
54193;SDS011;40102;50.906;6.972;2023-01-24T15:41:51;7.38;;;4.45;;
54193;SDS011;40102;50.906;6.972;2023-01-24T15:44:43;6.65;;;3.88;;
54193;SDS011;40102;50.906;6.972;2023-01-24T15:47:17;10.38;;;5.43;;
54193;SDS011;40102;50.906;6.972;2023-01-24T15:50:13;9.25;;;5.80;;
54193;SDS011;40102;50.906;6.972;2023-01-24T15:55:47;8.10;;;4.90;;
54193;SDS011;40102;50.906;6.972;2023-01-24T15:58:13;7.53;;;4.80;;
54193;SDS011;40102;50.906;6.972;2023-01-24T16:00:38;8.93;;;4.85;;
54193;SDS011;40102;50.906;6.972;2023-01-24T16:03:04;7.25;;;4.55;;
54193;SDS011;40102;50.906;6.972;2023-01-24T16:05:29;6.40;;;4.53;;
54193;SDS011;40102;50.906;6.972;2023-01-24T16:07:55;7.93;;;4.97;;
54193;SDS011;40102;50.906;6.972;2023-01-24T16:10:20;8.82;;;5.30;;
54193;SDS011;40102;50.906;6.972;2023-01-24T16:12:46;8.48;;;5.20;;
54193;SDS011;40102;50.906;6.972;2023-01-24T16:15:18;7.78;;;4.80;;
54193;SDS011;40102;50.906;6.972;2023-01-24T16:17:44;7.10;;;4.60;;
54193;SDS011;40102;50.906;6.972;2023-01-24T16:20:20;8.38;;;5.28;;
54193;SDS011;40102;50.906;6.972;2023-01-24T16:22:49;7.22;;;4.43;;
54193;SDS011;40102;50.906;6.972;2023-01-24T16:25:15;8.30;;;4.70;;
54193;SDS011;40102;50.906;6.972;2023-01-24T16:27:42;8.48;;;4.72;;
54193;SDS011;40102;50.906;6.972;2023-01-24T16:30:21;8.23;;;5.15;;
54193;SDS011;40102;50.906;6.972;2023-01-24T16:32:48;9.43;;;5.57;;
54193;SDS011;40102;50.906;6.972;2023-01-24T16:35:15;9.02;;;5.38;;
54193;SDS011;40102;50.906;6.972;2023-01-24T16:37:40;9.38;;;6.05;;
54193;SDS011;40102;50.906;6.972;2023-01-24T16:40:08;9.50;;;5.80;;
54193;SDS011;40102;50.906;6.972;2023-01-24T16:42:37;9.65;;;6.07;;
54193;SDS011;40102;50.906;6.972;2023-01-24T16:45:04;9.07;;;5.55;;
54193;SDS011;40102;50.906;6.972;2023-01-24T16:47:30;9.65;;;5.95;;
54193;SDS011;40102;50.906;6.972;2023-01-24T16:49:57;9.48;;;6.00;;
54193;SDS011;40102;50.906;6.972;2023-01-24T16:52:23;8.95;;;5.57;;
54193;SDS011;40102;50.906;6.972;2023-01-24T16:54:50;8.60;;;5.78;;
54193;SDS011;40102;50.906;6.972;2023-01-24T16:57:16;10.27;;;5.88;;
54193;SDS011;40102;50.906;6.972;2023-01-24T16:59:41;9.75;;;5.50;;
54193;SDS011;40102;50.906;6.972;2023-01-24T17:02:08;9.85;;;5.68;;
54193;SDS011;40102;50.906;6.972;2023-01-24T17:04:35;11.05;;;6.70;;
54193;SDS011;40102;50.906;6.972;2023-01-24T17:07:00;10.13;;;6.20;;
54193;SDS011;40102;50.906;6.972;2023-01-24T17:09:28;9.13;;;5.38;;
54193;SDS011;40102;50.906;6.972;2023-01-24T17:11:54;12.55;;;6.13;;
54193;SDS011;40102;50.906;6.972;2023-01-24T17:14:20;8.77;;;5.47;;
54193;SDS011;40102;50.906;6.972;2023-01-24T17:16:46;10.02;;;6.10;;
54193;SDS011;40102;50.906;6.972;2023-01-24T17:19:16;9.25;;;5.78;;
54193;SDS011;40102;50.906;6.972;2023-01-24T17:21:41;9.70;;;5.53;;
54193;SDS011;40102;50.906;6.972;2023-01-24T17:24:07;10.70;;;6.00;;